Terminal Aerodrome Forecast
Issued by NWS

Home | Current Version | Previous Version | Text Only | Print | Product List | Glossary On
Versions: 1 2 3 4 5 6 7 8 9 10 11 12 13 14 15 16 17 18 19 20 21
000
FTUS41 KOKX 281929 AAA
TAFSWF
TAF AMD
KSWF 281929Z 2819/2924 30012KT 4SM -SN OVC025
      TEMPO 2819/2820 1SM -SN BKN007
     FM282000 35012G19KT P6SM OVC035
     FM290400 35010G18KT P6SM BKN050 OVC120
     FM290900 34008KT P6SM SCT250
     FM292000 28010KT P6SM SCT250
      AMD NOT SKED=

USA.gov is the U.S. government's official web portal to all federal, state and local government web resources and services.